KCHA

Chattanooga Lovell

Airport
ICAO code
KCHA
Summary
ICAO Region
NAM
ICAO Territory
Location

Chattanooga, Tennessee,

Coordinates
35° 2' 7" N , 85° 12' 14" W
KCC
Metar
Observation
KCHA 061553Z 02007KT 10SM CLR 13/02 A3026 RMK AO2 SLP248 T01280022
Station
Chattanooga, Lovell Field
Date/Time
2023-02-06 16:53:00
Wind direction
20°
Wind speed
07 kts
Lowest cloud amount
n/a
Temperature
12.8°C
Dew point
2.2°C
Humidity
48%
Weather condition
n/a

Description

Airport serving Chattanooga, Tennessee, USA.

Climatology

Humid “subtropical” climate (Köppen climate classification Cfa) - characterized by hot, humid summers and cool winters. Significant amounts of precipitation occur in all seasons in most areas. Winter rainfall (and sometimes snowfall) is associated with large storms that the westerlies steer from west to east. Most summer rainfall occurs during thunderstorms and occasional tropical storms (hurricanes).

Airport map

Aerial View

SKYbrary Partners:

Safety knowledge contributed by: